sensor_id;sensor_type;location;lat;lon;timestamp;pressure;altitude;pressure_sealevel;temperature;humidity
68376;BME280;55318;52.068;5.188;2024-03-08T00:00:37;101945.0;;;5.32;90.79
68376;BME280;55318;52.068;5.188;2024-03-08T00:02:13;101942.0;;;5.32;90.15
68376;BME280;55318;52.068;5.188;2024-03-08T00:05:25;101940.0;;;5.24;90.6
68376;BME280;55318;52.068;5.188;2024-03-08T00:07:01;101940.0;;;5.25;90.29
68376;BME280;55318;52.068;5.188;2024-03-08T00:08:38;101935.0;;;5.28;90.33
68376;BME280;55318;52.068;5.188;2024-03-08T00:10:15;101935.0;;;5.2;90.52
68376;BME280;55318;52.068;5.188;2024-03-08T00:13:27;101931.0;;;5.19;90.2
68376;BME280;55318;52.068;5.188;2024-03-08T00:15:03;101926.0;;;5.18;90.33
68376;BME280;55318;52.068;5.188;2024-03-08T00:16:40;101927.0;;;5.22;90.25
68376;BME280;55318;52.068;5.188;2024-03-08T00:19:52;101921.0;;;5.21;90.38
68376;BME280;55318;52.068;5.188;2024-03-08T00:21:28;101921.0;;;5.12;89.82
68376;BME280;55318;52.068;5.188;2024-03-08T00:23:04;101919.0;;;5.04;90.13
68376;BME280;55318;52.068;5.188;2024-03-08T00:26:16;101919.0;;;5.01;91.16
68376;BME280;55318;52.068;5.188;2024-03-08T00:27:52;101913.0;;;5.03;91.11
68376;BME280;55318;52.068;5.188;2024-03-08T00:29:28;101912.0;;;4.96;90.92
68376;BME280;55318;52.068;5.188;2024-03-08T00:31:05;101907.0;;;4.99;91.17
68376;BME280;55318;52.068;5.188;2024-03-08T00:34:17;101910.0;;;4.93;90.4
68376;BME280;55318;52.068;5.188;2024-03-08T00:35:53;101902.0;;;4.92;90.65
68376;BME280;55318;52.068;5.188;2024-03-08T00:37:29;101905.0;;;4.95;90.51
68376;BME280;55318;52.068;5.188;2024-03-08T00:40:41;101901.0;;;4.83;90.84
68376;BME280;55318;52.068;5.188;2024-03-08T00:42:18;101900.0;;;4.75;90.89
68376;BME280;55318;52.068;5.188;2024-03-08T00:43:54;101899.0;;;4.79;90.87
68376;BME280;55318;52.068;5.188;2024-03-08T00:47:07;101899.0;;;4.74;91.34
68376;BME280;55318;52.068;5.188;2024-03-08T00:48:43;101899.0;;;4.62;91.42
68376;BME280;55318;52.068;5.188;2024-03-08T00:50:20;101894.0;;;4.61;91.44
68376;BME280;55318;52.068;5.188;2024-03-08T00:53:32;101888.0;;;4.61;92.06
68376;BME280;55318;52.068;5.188;2024-03-08T00:55:09;101886.0;;;4.66;91.33
68376;BME280;55318;52.068;5.188;2024-03-08T00:56:44;101883.0;;;4.74;91.32
68376;BME280;55318;52.068;5.188;2024-03-08T00:58:20;101884.0;;;4.64;91.44
68376;BME280;55318;52.068;5.188;2024-03-08T01:01:33;101880.0;;;4.76;90.74
68376;BME280;55318;52.068;5.188;2024-03-08T01:03:09;101877.0;;;4.74;90.53
68376;BME280;55318;52.068;5.188;2024-03-08T01:04:45;101870.0;;;4.51;90.99
68376;BME280;55318;52.068;5.188;2024-03-08T01:07:57;101871.0;;;4.54;90.92
68376;BME280;55318;52.068;5.188;2024-03-08T01:09:33;101865.0;;;4.57;91.08
68376;BME280;55318;52.068;5.188;2024-03-08T01:11:09;101860.0;;;4.58;91.23
68376;BME280;55318;52.068;5.188;2024-03-08T01:14:22;101862.0;;;4.55;91.18
68376;BME280;55318;52.068;5.188;2024-03-08T01:15:58;101856.0;;;4.54;90.75
68376;BME280;55318;52.068;5.188;2024-03-08T01:17:34;101861.0;;;4.62;90.53
68376;BME280;55318;52.068;5.188;2024-03-08T01:20:47;101860.0;;;4.55;90.76
68376;BME280;55318;52.068;5.188;2024-03-08T01:22:23;101851.0;;;4.46;90.59
68376;BME280;55318;52.068;5.188;2024-03-08T01:23:59;101851.0;;;4.45;91.17
68376;BME280;55318;52.068;5.188;2024-03-08T01:25:36;101847.0;;;4.59;90.55
68376;BME280;55318;52.068;5.188;2024-03-08T01:28:49;101848.0;;;4.53;90.53
68376;BME280;55318;52.068;5.188;2024-03-08T01:30:25;101842.0;;;4.43;90.47
68376;BME280;55318;52.068;5.188;2024-03-08T01:32:01;101841.0;;;4.42;91.01
68376;BME280;55318;52.068;5.188;2024-03-08T01:35:14;101841.0;;;4.39;91.02
68376;BME280;55318;52.068;5.188;2024-03-08T01:36:50;101839.0;;;4.41;90.84
68376;BME280;55318;52.068;5.188;2024-03-08T01:38:26;101833.0;;;4.38;90.89
68376;BME280;55318;52.068;5.188;2024-03-08T01:41:38;101836.0;;;4.43;90.83
68376;BME280;55318;52.068;5.188;2024-03-08T01:43:18;101836.0;;;4.51;90.31
68376;BME280;55318;52.068;5.188;2024-03-08T01:44:54;101831.0;;;4.45;90.32
68376;BME280;55318;52.068;5.188;2024-03-08T01:46:30;101826.0;;;4.5;90.02
68376;BME280;55318;52.068;5.188;2024-03-08T01:49:44;101826.0;;;4.43;90.07
68376;BME280;55318;52.068;5.188;2024-03-08T01:51:21;101821.0;;;4.32;90.51
68376;BME280;55318;52.068;5.188;2024-03-08T01:52:57;101823.0;;;4.32;90.55
68376;BME280;55318;52.068;5.188;2024-03-08T01:56:11;101817.0;;;4.36;90.37
68376;BME280;55318;52.068;5.188;2024-03-08T01:57:47;101819.0;;;4.29;90.48
68376;BME280;55318;52.068;5.188;2024-03-08T01:59:23;101818.0;;;4.37;90.06
68376;BME280;55318;52.068;5.188;2024-03-08T02:02:42;101809.0;;;4.29;90.15
68376;BME280;55318;52.068;5.188;2024-03-08T02:04:18;101813.0;;;4.39;89.78
68376;BME280;55318;52.068;5.188;2024-03-08T02:05:54;101811.0;;;4.32;89.84
68376;BME280;55318;52.068;5.188;2024-03-08T02:07:30;101812.0;;;4.21;89.99
68376;BME280;55318;52.068;5.188;2024-03-08T02:10:44;101807.0;;;4.26;89.82
68376;BME280;55318;52.068;5.188;2024-03-08T02:12:21;101808.0;;;4.21;89.9
68376;BME280;55318;52.068;5.188;2024-03-08T02:13:57;101805.0;;;4.24;90.02
68376;BME280;55318;52.068;5.188;2024-03-08T02:17:38;101805.0;;;4.3;89.96
68376;BME280;55318;52.068;5.188;2024-03-08T02:19:14;101799.0;;;4.32;89.51
68376;BME280;55318;52.068;5.188;2024-03-08T02:20:51;101793.0;;;4.29;89.18
68376;BME280;55318;52.068;5.188;2024-03-08T02:22:27;101788.0;;;4.24;89.48
68376;BME280;55318;52.068;5.188;2024-03-08T02:24:06;101789.0;;;4.18;89.48
68376;BME280;55318;52.068;5.188;2024-03-08T02:27:23;101785.0;;;4.18;89.02
68376;BME280;55318;52.068;5.188;2024-03-08T02:28:59;101776.0;;;4.13;89.21
68376;BME280;55318;52.068;5.188;2024-03-08T02:30:35;101777.0;;;4.01;89.41
68376;BME280;55318;52.068;5.188;2024-03-08T02:33:47;101778.0;;;4.03;89.38
68376;BME280;55318;52.068;5.188;2024-03-08T02:35:23;101773.0;;;3.85;89.94
68376;BME280;55318;52.068;5.188;2024-03-08T02:36:59;101773.0;;;3.94;89.72
68376;BME280;55318;52.068;5.188;2024-03-08T02:40:12;101767.0;;;4.03;89.43
68376;BME280;55318;52.068;5.188;2024-03-08T02:41:47;101763.0;;;4.01;89.27
68376;BME280;55318;52.068;5.188;2024-03-08T02:43:23;101764.0;;;3.99;89.41
68376;BME280;55318;52.068;5.188;2024-03-08T02:45:00;101767.0;;;3.97;89.48
68376;BME280;55318;52.068;5.188;2024-03-08T02:48:13;101756.0;;;3.94;89.43
68376;BME280;55318;52.068;5.188;2024-03-08T02:49:50;101757.0;;;4.08;88.84
68376;BME280;55318;52.068;5.188;2024-03-08T02:51:26;101757.0;;;4.03;88.6
68376;BME280;55318;52.068;5.188;2024-03-08T02:54:39;101752.0;;;3.99;88.42
68376;BME280;55318;52.068;5.188;2024-03-08T02:56:15;101751.0;;;3.93;88.46
68376;BME280;55318;52.068;5.188;2024-03-08T02:57:52;101755.0;;;3.93;88.53
68376;BME280;55318;52.068;5.188;2024-03-08T03:01:04;101746.0;;;4.0;88.01
68376;BME280;55318;52.068;5.188;2024-03-08T03:02:40;101749.0;;;3.91;87.98
68376;BME280;55318;52.068;5.188;2024-03-08T03:04:16;101755.0;;;3.92;87.76
68376;BME280;55318;52.068;5.188;2024-03-08T03:07:28;101745.0;;;3.98;87.55
68376;BME280;55318;52.068;5.188;2024-03-08T03:09:04;101741.0;;;3.79;87.84
68376;BME280;55318;52.068;5.188;2024-03-08T03:10:40;101739.0;;;3.85;87.79
68376;BME280;55318;52.068;5.188;2024-03-08T03:12:16;101735.0;;;3.9;88.12
68376;BME280;55318;52.068;5.188;2024-03-08T03:15:28;101730.0;;;3.87;87.78
68376;BME280;55318;52.068;5.188;2024-03-08T03:17:05;101734.0;;;3.79;87.74
68376;BME280;55318;52.068;5.188;2024-03-08T03:18:41;101728.0;;;3.87;87.45
68376;BME280;55318;52.068;5.188;2024-03-08T03:21:54;101728.0;;;3.89;87.8
68376;BME280;55318;52.068;5.188;2024-03-08T03:23:30;101726.0;;;3.83;87.21
68376;BME280;55318;52.068;5.188;2024-03-08T03:25:07;101727.0;;;3.81;87.39
68376;BME280;55318;52.068;5.188;2024-03-08T03:28:19;101726.0;;;3.72;87.29
68376;BME280;55318;52.068;5.188;2024-03-08T03:29:56;101722.0;;;3.87;86.88
68376;BME280;55318;52.068;5.188;2024-03-08T03:31:33;101719.0;;;3.69;86.92
68376;BME280;55318;52.068;5.188;2024-03-08T03:33:09;101717.0;;;3.76;86.83
68376;BME280;55318;52.068;5.188;2024-03-08T03:36:21;101713.0;;;3.76;87.18
68376;BME280;55318;52.068;5.188;2024-03-08T03:37:57;101719.0;;;3.69;86.96
68376;BME280;55318;52.068;5.188;2024-03-08T03:39:33;101711.0;;;3.68;87.14
68376;BME280;55318;52.068;5.188;2024-03-08T03:42:45;101713.0;;;3.73;87.53
68376;BME280;55318;52.068;5.188;2024-03-08T03:44:21;101705.0;;;3.75;87.0
68376;BME280;55318;52.068;5.188;2024-03-08T03:45:57;101709.0;;;3.73;86.69
68376;BME280;55318;52.068;5.188;2024-03-08T03:49:10;101705.0;;;3.81;86.29
68376;BME280;55318;52.068;5.188;2024-03-08T03:50:46;101703.0;;;3.89;85.82
68376;BME280;55318;52.068;5.188;2024-03-08T03:52:22;101705.0;;;3.79;86.13
68376;BME280;55318;52.068;5.188;2024-03-08T03:55:34;101699.0;;;3.82;86.07
68376;BME280;55318;52.068;5.188;2024-03-08T03:57:10;101697.0;;;3.67;86.23
68376;BME280;55318;52.068;5.188;2024-03-08T03:58:46;101698.0;;;3.78;85.94
68376;BME280;55318;52.068;5.188;2024-03-08T04:00:22;101701.0;;;3.7;86.33
68376;BME280;55318;52.068;5.188;2024-03-08T04:03:35;101697.0;;;3.7;86.12
68376;BME280;55318;52.068;5.188;2024-03-08T04:05:11;101700.0;;;3.76;85.56
68376;BME280;55318;52.068;5.188;2024-03-08T04:06:47;101705.0;;;3.77;85.58
68376;BME280;55318;52.068;5.188;2024-03-08T04:09:59;101693.0;;;3.73;85.01
68376;BME280;55318;52.068;5.188;2024-03-08T04:11:35;101693.0;;;3.71;85.44
68376;BME280;55318;52.068;5.188;2024-03-08T04:13:11;101692.0;;;3.76;85.03
68376;BME280;55318;52.068;5.188;2024-03-08T04:16:23;101688.0;;;3.71;85.07
68376;BME280;55318;52.068;5.188;2024-03-08T04:17:59;101689.0;;;3.68;85.68
68376;BME280;55318;52.068;5.188;2024-03-08T04:19:35;101689.0;;;3.69;85.66
68376;BME280;55318;52.068;5.188;2024-03-08T04:21:11;101687.0;;;3.74;84.88
68376;BME280;55318;52.068;5.188;2024-03-08T04:24:24;101684.0;;;3.64;85.18
68376;BME280;55318;52.068;5.188;2024-03-08T04:26:00;101685.0;;;3.65;85.16
68376;BME280;55318;52.068;5.188;2024-03-08T04:27:37;101680.0;;;3.8;84.62
68376;BME280;55318;52.068;5.188;2024-03-08T04:30:50;101680.0;;;3.71;84.92
68376;BME280;55318;52.068;5.188;2024-03-08T04:32:26;101678.0;;;3.58;85.18
68376;BME280;55318;52.068;5.188;2024-03-08T04:34:02;101680.0;;;3.66;85.01
68376;BME280;55318;52.068;5.188;2024-03-08T04:37:15;101681.0;;;3.66;85.04
68376;BME280;55318;52.068;5.188;2024-03-08T04:38:51;101680.0;;;3.68;84.66
68376;BME280;55318;52.068;5.188;2024-03-08T04:40:27;101676.0;;;3.61;84.88
68376;BME280;55318;52.068;5.188;2024-03-08T04:43:41;101678.0;;;3.7;84.41
68376;BME280;55318;52.068;5.188;2024-03-08T04:45:17;101676.0;;;3.66;84.32
68376;BME280;55318;52.068;5.188;2024-03-08T04:46:53;101665.0;;;3.69;84.43
68376;BME280;55318;52.068;5.188;2024-03-08T04:48:29;101662.0;;;3.68;84.29
68376;BME280;55318;52.068;5.188;2024-03-08T04:51:42;101663.0;;;3.63;84.29
68376;BME280;55318;52.068;5.188;2024-03-08T04:53:19;101659.0;;;3.63;84.25
68376;BME280;55318;52.068;5.188;2024-03-08T04:58:07;101665.0;;;3.52;84.24
68376;BME280;55318;52.068;5.188;2024-03-08T04:59:43;101659.0;;;3.58;84.7
68376;BME280;55318;52.068;5.188;2024-03-08T05:01:19;101660.0;;;3.64;84.2
68376;BME280;55318;52.068;5.188;2024-03-08T05:04:31;101656.0;;;3.67;83.91
68376;BME280;55318;52.068;5.188;2024-03-08T05:06:07;101658.0;;;3.5;83.81
68376;BME280;55318;52.068;5.188;2024-03-08T05:07:43;101656.0;;;3.56;84.14
68376;BME280;55318;52.068;5.188;2024-03-08T05:09:20;101655.0;;;3.49;85.2
68376;BME280;55318;52.068;5.188;2024-03-08T05:12:33;101652.0;;;3.47;84.31
68376;BME280;55318;52.068;5.188;2024-03-08T05:14:09;101652.0;;;3.49;84.54
68376;BME280;55318;52.068;5.188;2024-03-08T05:15:48;101652.0;;;3.47;84.49
68376;BME280;55318;52.068;5.188;2024-03-08T05:19:00;101651.0;;;3.54;84.4
68376;BME280;55318;52.068;5.188;2024-03-08T05:20:36;101647.0;;;3.54;84.01
68376;BME280;55318;52.068;5.188;2024-03-08T05:22:12;101651.0;;;3.59;84.14
68376;BME280;55318;52.068;5.188;2024-03-08T05:25:27;101650.0;;;3.44;84.34
68376;BME280;55318;52.068;5.188;2024-03-08T05:27:03;101650.0;;;3.31;84.92
68376;BME280;55318;52.068;5.188;2024-03-08T05:28:40;101647.0;;;3.41;84.47
68376;BME280;55318;52.068;5.188;2024-03-08T05:30:16;101648.0;;;3.42;84.32
68376;BME280;55318;52.068;5.188;2024-03-08T05:33:29;101647.0;;;3.4;84.49
68376;BME280;55318;52.068;5.188;2024-03-08T05:35:06;101646.0;;;3.45;84.24
68376;BME280;55318;52.068;5.188;2024-03-08T05:36:41;101640.0;;;3.34;85.0
68376;BME280;55318;52.068;5.188;2024-03-08T05:39:54;101640.0;;;3.29;84.58
68376;BME280;55318;52.068;5.188;2024-03-08T05:41:30;101643.0;;;3.42;84.44
68376;BME280;55318;52.068;5.188;2024-03-08T05:43:06;101641.0;;;3.41;84.23
68376;BME280;55318;52.068;5.188;2024-03-08T05:46:18;101643.0;;;3.48;84.03
68376;BME280;55318;52.068;5.188;2024-03-08T05:47:54;101643.0;;;3.34;84.0
68376;BME280;55318;52.068;5.188;2024-03-08T05:49:30;101641.0;;;3.42;84.29
68376;BME280;55318;52.068;5.188;2024-03-08T05:52:43;101638.0;;;3.48;83.87
68376;BME280;55318;52.068;5.188;2024-03-08T05:54:18;101639.0;;;3.41;83.84
68376;BME280;55318;52.068;5.188;2024-03-08T05:55:56;101632.0;;;3.38;83.44
68376;BME280;55318;52.068;5.188;2024-03-08T05:57:32;101630.0;;;3.39;84.03
68376;BME280;55318;52.068;5.188;2024-03-08T06:00:44;101630.0;;;3.39;83.98
68376;BME280;55318;52.068;5.188;2024-03-08T06:02:20;101627.0;;;3.45;83.64
68376;BME280;55318;52.068;5.188;2024-03-08T06:03:56;101627.0;;;3.41;84.1
68376;BME280;55318;52.068;5.188;2024-03-08T06:07:08;101622.0;;;3.43;83.65
68376;BME280;55318;52.068;5.188;2024-03-08T06:08:45;101618.0;;;3.39;83.58
68376;BME280;55318;52.068;5.188;2024-03-08T06:10:21;101609.0;;;3.4;83.36
68376;BME280;55318;52.068;5.188;2024-03-08T06:13:33;101617.0;;;3.41;83.89
68376;BME280;55318;52.068;5.188;2024-03-08T06:15:10;101618.0;;;3.38;83.49
68376;BME280;55318;52.068;5.188;2024-03-08T06:16:47;101615.0;;;3.36;83.46
68376;BME280;55318;52.068;5.188;2024-03-08T06:18:23;101616.0;;;3.4;83.42
68376;BME280;55318;52.068;5.188;2024-03-08T06:21:35;101613.0;;;3.43;82.75
68376;BME280;55318;52.068;5.188;2024-03-08T06:23:11;101607.0;;;3.45;83.04
68376;BME280;55318;52.068;5.188;2024-03-08T06:24:48;101612.0;;;3.46;82.92
68376;BME280;55318;52.068;5.188;2024-03-08T06:28:01;101614.0;;;3.48;82.6
68376;BME280;55318;52.068;5.188;2024-03-08T06:29:37;101611.0;;;3.48;82.92
68376;BME280;55318;52.068;5.188;2024-03-08T06:31:13;101613.0;;;3.43;83.0
68376;BME280;55318;52.068;5.188;2024-03-08T06:34:25;101611.0;;;3.36;83.38
68376;BME280;55318;52.068;5.188;2024-03-08T06:36:01;101611.0;;;3.46;82.86
68376;BME280;55318;52.068;5.188;2024-03-08T06:37:37;101615.0;;;3.5;82.81
68376;BME280;55318;52.068;5.188;2024-03-08T06:40:50;101612.0;;;3.44;82.67
68376;BME280;55318;52.068;5.188;2024-03-08T06:42:26;101610.0;;;3.52;82.63
68376;BME280;55318;52.068;5.188;2024-03-08T06:44:02;101605.0;;;3.55;82.45
68376;BME280;55318;52.068;5.188;2024-03-08T06:45:39;101606.0;;;3.43;83.11
68376;BME280;55318;52.068;5.188;2024-03-08T06:48:51;101610.0;;;3.51;82.56
68376;BME280;55318;52.068;5.188;2024-03-08T06:50:27;101602.0;;;3.58;82.71
68376;BME280;55318;52.068;5.188;2024-03-08T06:52:04;101605.0;;;3.63;82.47
68376;BME280;55318;52.068;5.188;2024-03-08T06:55:17;101608.0;;;3.67;81.99
68376;BME280;55318;52.068;5.188;2024-03-08T06:56:53;101606.0;;;3.75;81.91
68376;BME280;55318;52.068;5.188;2024-03-08T06:58:29;101605.0;;;3.83;82.25
68376;BME280;55318;52.068;5.188;2024-03-08T07:01:43;101605.0;;;3.99;81.91
68376;BME280;55318;52.068;5.188;2024-03-08T07:03:19;101600.0;;;4.07;81.05
68376;BME280;55318;52.068;5.188;2024-03-08T07:04:55;101598.0;;;4.08;81.11
68376;BME280;55318;52.068;5.188;2024-03-08T07:06:31;101595.0;;;4.24;80.19
68376;BME280;55318;52.068;5.188;2024-03-08T07:09:45;101596.0;;;4.34;79.72
68376;BME280;55318;52.068;5.188;2024-03-08T07:11:21;101594.0;;;4.38;79.91
68376;BME280;55318;52.068;5.188;2024-03-08T07:12:57;101587.0;;;4.51;78.88
68376;BME280;55318;52.068;5.188;2024-03-08T07:16:09;101588.0;;;4.41;78.75
68376;BME280;55318;52.068;5.188;2024-03-08T07:17:45;101587.0;;;4.45;78.3
68376;BME280;55318;52.068;5.188;2024-03-08T07:19:22;101588.0;;;4.53;78.47
68376;BME280;55318;52.068;5.188;2024-03-08T07:22:34;101589.0;;;4.58;77.84
68376;BME280;55318;52.068;5.188;2024-03-08T07:24:11;101584.0;;;4.66;77.89
68376;BME280;55318;52.068;5.188;2024-03-08T07:25:48;101585.0;;;4.74;77.25
68376;BME280;55318;52.068;5.188;2024-03-08T07:27:24;101578.0;;;4.87;76.83
68376;BME280;55318;52.068;5.188;2024-03-08T07:30:36;101578.0;;;4.88;76.72
68376;BME280;55318;52.068;5.188;2024-03-08T07:32:12;101580.0;;;4.99;76.72
68376;BME280;55318;52.068;5.188;2024-03-08T07:33:48;101572.0;;;4.95;76.16
68376;BME280;55318;52.068;5.188;2024-03-08T07:37:00;101577.0;;;5.07;76.23
68376;BME280;55318;52.068;5.188;2024-03-08T07:38:36;101564.0;;;5.18;76.12
68376;BME280;55318;52.068;5.188;2024-03-08T07:40:13;101567.0;;;5.07;75.75
68376;BME280;55318;52.068;5.188;2024-03-08T07:43:25;101560.0;;;5.07;75.83
68376;BME280;55318;52.068;5.188;2024-03-08T07:45:01;101559.0;;;5.09;76.86
68376;BME280;55318;52.068;5.188;2024-03-08T07:49:50;101556.0;;;5.28;75.05
68376;BME280;55318;52.068;5.188;2024-03-08T07:51:26;101560.0;;;5.24;74.69
68376;BME280;55318;52.068;5.188;2024-03-08T07:53:03;101555.0;;;5.5;74.86
68376;BME280;55318;52.068;5.188;2024-03-08T07:54:38;101555.0;;;5.51;73.83
68376;BME280;55318;52.068;5.188;2024-03-08T07:57:51;101551.0;;;5.67;73.86
68376;BME280;55318;52.068;5.188;2024-03-08T07:59:28;101551.0;;;5.74;74.09
68376;BME280;55318;52.068;5.188;2024-03-08T08:01:04;101555.0;;;5.73;72.66
68376;BME280;55318;52.068;5.188;2024-03-08T08:04:16;101544.0;;;5.97;72.77
68376;BME280;55318;52.068;5.188;2024-03-08T08:05:52;101547.0;;;6.07;72.92
68376;BME280;55318;52.068;5.188;2024-03-08T08:07:28;101545.0;;;6.19;72.11
68376;BME280;55318;52.068;5.188;2024-03-08T08:10:41;101545.0;;;6.33;71.64
68376;BME280;55318;52.068;5.188;2024-03-08T08:12:17;101544.0;;;6.39;71.73
68376;BME280;55318;52.068;5.188;2024-03-08T08:13:53;101539.0;;;6.67;71.78
68376;BME280;55318;52.068;5.188;2024-03-08T08:15:29;101539.0;;;6.86;69.5
68376;BME280;55318;52.068;5.188;2024-03-08T08:18:41;101539.0;;;7.1;69.3
68376;BME280;55318;52.068;5.188;2024-03-08T08:20:17;101535.0;;;7.28;68.86
68376;BME280;55318;52.068;5.188;2024-03-08T08:21:53;101535.0;;;7.36;67.8
68376;BME280;55318;52.068;5.188;2024-03-08T08:25:06;101531.0;;;7.53;66.16
68376;BME280;55318;52.068;5.188;2024-03-08T08:26:43;101532.0;;;7.74;65.85
68376;BME280;55318;52.068;5.188;2024-03-08T08:28:19;101522.0;;;7.89;64.87
68376;BME280;55318;52.068;5.188;2024-03-08T08:31:32;101519.0;;;8.0;63.92
68376;BME280;55318;52.068;5.188;2024-03-08T08:33:08;101518.0;;;8.2;64.33
68376;BME280;55318;52.068;5.188;2024-03-08T08:37:56;101508.0;;;8.27;63.84
68376;BME280;55318;52.068;5.188;2024-03-08T08:39:33;101513.0;;;8.48;65.12
68376;BME280;55318;52.068;5.188;2024-03-08T08:41:09;101505.0;;;8.66;63.97
68376;BME280;55318;52.068;5.188;2024-03-08T08:42:45;101500.0;;;8.67;62.91
68376;BME280;55318;52.068;5.188;2024-03-08T08:45:57;101503.0;;;8.84;62.56
68376;BME280;55318;52.068;5.188;2024-03-08T08:47:34;101494.0;;;8.89;62.04
68376;BME280;55318;52.068;5.188;2024-03-08T08:49:10;101496.0;;;9.03;63.76
68376;BME280;55318;52.068;5.188;2024-03-08T08:52:23;101490.0;;;9.07;64.58
68376;BME280;55318;52.068;5.188;2024-03-08T08:53:59;101489.0;;;9.33;61.88
68376;BME280;55318;52.068;5.188;2024-03-08T08:55:36;101491.0;;;9.38;61.79
68376;BME280;55318;52.068;5.188;2024-03-08T08:58:48;101480.0;;;9.48;60.02
68376;BME280;55318;52.068;5.188;2024-03-08T09:00:24;101471.0;;;9.59;59.99
68376;BME280;55318;52.068;5.188;2024-03-08T09:02:00;101477.0;;;9.74;61.85
68376;BME280;55318;52.068;5.188;2024-03-08T09:03:37;101478.0;;;9.94;59.85
68376;BME280;55318;52.068;5.188;2024-03-08T09:06:50;101476.0;;;10.16;62.36
68376;BME280;55318;52.068;5.188;2024-03-08T09:08:26;101472.0;;;10.14;60.07
68376;BME280;55318;52.068;5.188;2024-03-08T09:10:02;101475.0;;;10.23;58.38
68376;BME280;55318;52.068;5.188;2024-03-08T09:13:15;101476.0;;;10.31;58.34
68376;BME280;55318;52.068;5.188;2024-03-08T09:14:51;101468.0;;;10.34;58.68
68376;BME280;55318;52.068;5.188;2024-03-08T09:16:28;101468.0;;;10.19;56.8
68376;BME280;55318;52.068;5.188;2024-03-08T09:19:41;101467.0;;;10.17;59.54
68376;BME280;55318;52.068;5.188;2024-03-08T09:21:17;101464.0;;;10.22;58.29
68376;BME280;55318;52.068;5.188;2024-03-08T09:22:53;101460.0;;;10.32;57.14
68376;BME280;55318;52.068;5.188;2024-03-08T09:26:06;101459.0;;;10.3;57.91
68376;BME280;55318;52.068;5.188;2024-03-08T09:27:42;101455.0;;;10.26;58.81
68376;BME280;55318;52.068;5.188;2024-03-08T09:29:18;101453.0;;;10.24;57.06
68376;BME280;55318;52.068;5.188;2024-03-08T09:30:54;101449.0;;;10.55;57.96
68376;BME280;55318;52.068;5.188;2024-03-08T09:34:06;101450.0;;;10.35;57.1
68376;BME280;55318;52.068;5.188;2024-03-08T09:35:42;101448.0;;;10.6;59.87
68376;BME280;55318;52.068;5.188;2024-03-08T09:37:18;101441.0;;;10.86;60.52
68376;BME280;55318;52.068;5.188;2024-03-08T09:40:31;101438.0;;;10.89;58.29
68376;BME280;55318;52.068;5.188;2024-03-08T09:42:07;101432.0;;;10.85;55.24
68376;BME280;55318;52.068;5.188;2024-03-08T09:43:45;101428.0;;;10.94;55.76
68376;BME280;55318;52.068;5.188;2024-03-08T09:46:58;101420.0;;;11.16;55.54
68376;BME280;55318;52.068;5.188;2024-03-08T09:48:35;101416.0;;;11.25;57.03
68376;BME280;55318;52.068;5.188;2024-03-08T09:50:11;101412.0;;;11.4;56.92
68376;BME280;55318;52.068;5.188;2024-03-08T09:51:50;101415.0;;;11.43;54.85
68376;BME280;55318;52.068;5.188;2024-03-08T09:55:04;101412.0;;;11.59;57.46
68376;BME280;55318;52.068;5.188;2024-03-08T09:56:40;101405.0;;;11.64;54.83
68376;BME280;55318;52.068;5.188;2024-03-08T09:58:18;101405.0;;;11.79;55.6
68376;BME280;55318;52.068;5.188;2024-03-08T10:01:30;101405.0;;;11.73;53.99
68376;BME280;55318;52.068;5.188;2024-03-08T10:03:07;101405.0;;;11.67;52.55
68376;BME280;55318;52.068;5.188;2024-03-08T10:04:43;101396.0;;;11.94;54.07
68376;BME280;55318;52.068;5.188;2024-03-08T10:07:59;101395.0;;;11.86;54.27
68376;BME280;55318;52.068;5.188;2024-03-08T10:09:35;101388.0;;;11.92;53.11
68376;BME280;55318;52.068;5.188;2024-03-08T10:11:11;101384.0;;;12.16;54.21
68376;BME280;55318;52.068;5.188;2024-03-08T10:12:48;101375.0;;;12.4;54.4
68376;BME280;55318;52.068;5.188;2024-03-08T10:16:01;101375.0;;;12.53;53.93
68376;BME280;55318;52.068;5.188;2024-03-08T10:17:39;101374.0;;;12.68;53.62
68376;BME280;55318;52.068;5.188;2024-03-08T10:19:16;101369.0;;;12.65;51.07
68376;BME280;55318;52.068;5.188;2024-03-08T10:22:41;101364.0;;;12.89;51.86
68376;BME280;55318;52.068;5.188;2024-03-08T10:24:17;101355.0;;;13.01;50.81
68376;BME280;55318;52.068;5.188;2024-03-08T10:25:53;101346.0;;;13.12;52.61
68376;BME280;55318;52.068;5.188;2024-03-08T10:27:29;101340.0;;;12.82;49.84
68376;BME280;55318;52.068;5.188;2024-03-08T10:30:47;101343.0;;;13.09;50.88
68376;BME280;55318;52.068;5.188;2024-03-08T10:32:23;101333.0;;;13.19;51.37
68376;BME280;55318;52.068;5.188;2024-03-08T10:33:59;101327.0;;;13.4;50.19
68376;BME280;55318;52.068;5.188;2024-03-08T10:37:14;101323.0;;;13.44;48.6
68376;BME280;55318;52.068;5.188;2024-03-08T10:38:51;101315.0;;;13.61;49.11
68376;BME280;55318;52.068;5.188;2024-03-08T10:40:29;101314.0;;;13.29;47.17
68376;BME280;55318;52.068;5.188;2024-03-08T10:42:11;101309.0;;;13.37;47.68
68376;BME280;55318;52.068;5.188;2024-03-08T10:46:01;101302.0;;;13.7;49.89
68376;BME280;55318;52.068;5.188;2024-03-08T10:47:45;101301.0;;;13.6;46.88
68376;BME280;55318;52.068;5.188;2024-03-08T10:49:31;101297.0;;;13.89;48.53
68376;BME280;55318;52.068;5.188;2024-03-08T10:51:09;101301.0;;;14.03;47.41
68376;BME280;55318;52.068;5.188;2024-03-08T10:52:49;101305.0;;;13.82;47.16
68376;BME280;55318;52.068;5.188;2024-03-08T10:56:04;101290.0;;;13.93;47.2
68376;BME280;55318;52.068;5.188;2024-03-08T10:57:40;101297.0;;;13.74;45.43
68376;BME280;55318;52.068;5.188;2024-03-08T10:59:16;101291.0;;;13.79;45.28
68376;BME280;55318;52.068;5.188;2024-03-08T11:00:54;101285.0;;;14.08;47.74
68376;BME280;55318;52.068;5.188;2024-03-08T11:04:07;101283.0;;;13.73;44.59
68376;BME280;55318;52.068;5.188;2024-03-08T11:05:43;101276.0;;;14.06;46.39
68376;BME280;55318;52.068;5.188;2024-03-08T11:07:20;101274.0;;;13.96;46.69
68376;BME280;55318;52.068;5.188;2024-03-08T11:10:32;101269.0;;;13.82;44.89
68376;BME280;55318;52.068;5.188;2024-03-08T11:12:21;101268.0;;;14.14;47.79
68376;BME280;55318;52.068;5.188;2024-03-08T11:14:00;101251.0;;;14.27;45.83
68376;BME280;55318;52.068;5.188;2024-03-08T11:15:38;101255.0;;;14.17;45.38
68376;BME280;55318;52.068;5.188;2024-03-08T11:18:53;101240.0;;;14.09;44.45